Terminal Aerodrome Forecast
Issued by NWS

Home | Current Version | Previous Version | Text Only | Print | Product List | Glossary On
Versions: 1 2 3 4 5 6 7 8 9 10 11 12 13 14 15 16 17 18 19 20 21 22 23 24 25 26 27 28 29
000
FTUS41 KBUF 271400 AAA
TAFJHW
TAF AMD
KJHW 271446Z 2715/2812 32010KT P6SM VCSH SCT008 OVC015
      TEMPO 2716/2720 OVC008
     FM272200 33009KT 2SM -SHSN BKN008 OVC012
     FM280400 35009KT 4SM BR VCSH SCT008 OVC012
      AMD LTD TO CLD VIS AND WIND=

USA.gov is the U.S. government's official web portal to all federal, state and local government web resources and services.